Weather at Geneva Cointrin International Airport

Public forecast

Using degrees Celsius for public forecast. Weather courtesy of forecast.io.

Current aviation weather report (METAR) for Geneva Cointrin International Airport

2024/04/16 17:50 (retrieved 10 minutes ago)

LSGG 161750Z 20008KT 9999 FEW035 SCT070 09/01 Q1013 NOSIG

Aviation forecast (TAF) for Geneva Cointrin International Airport

2024/04/16 18:33 (retrieved 0 seconds ago)

TAF TAF LSGG 161725Z 1618/1724 24005KT 9999 BKN045 TX10/1715Z TN05/1706Z PROB40 TEMPO 1619/1702 SHRA SCT030TCU PROB30 TEMPO 1703/1711 SHRA FEW035TCU TEMPO 1712/1723 SHRA SCT030TCU